sensor_id;sensor_type;location;lat;lon;timestamp;P1;durP1;ratioP1;P2;durP2;ratioP2
71916;SDS011;59793;46.506;6.674;2023-06-26T00:01:29;7.20;;;5.90;;
71916;SDS011;59793;46.506;6.674;2023-06-26T00:03:56;7.00;;;5.90;;
71916;SDS011;59793;46.506;6.674;2023-06-26T00:06:21;10.07;;;5.80;;
71916;SDS011;59793;46.506;6.674;2023-06-26T00:08:49;10.73;;;6.15;;
71916;SDS011;59793;46.506;6.674;2023-06-26T00:11:15;9.27;;;5.67;;
71916;SDS011;59793;46.506;6.674;2023-06-26T00:13:40;6.60;;;5.70;;
71916;SDS011;59793;46.506;6.674;2023-06-26T00:16:05;9.37;;;5.73;;
71916;SDS011;59793;46.506;6.674;2023-06-26T00:18:31;10.40;;;6.10;;
71916;SDS011;59793;46.506;6.674;2023-06-26T00:20:56;6.47;;;5.37;;
71916;SDS011;59793;46.506;6.674;2023-06-26T00:23:21;6.23;;;5.63;;
71916;SDS011;59793;46.506;6.674;2023-06-26T00:25:47;6.97;;;5.77;;
71916;SDS011;59793;46.506;6.674;2023-06-26T00:28:12;6.38;;;5.32;;
71916;SDS011;59793;46.506;6.674;2023-06-26T00:30:38;7.33;;;5.73;;
71916;SDS011;59793;46.506;6.674;2023-06-26T00:33:03;7.50;;;5.03;;
71916;SDS011;59793;46.506;6.674;2023-06-26T00:35:28;9.57;;;5.53;;
71916;SDS011;59793;46.506;6.674;2023-06-26T00:37:54;9.20;;;6.03;;
71916;SDS011;59793;46.506;6.674;2023-06-26T00:40:19;6.33;;;5.67;;
71916;SDS011;59793;46.506;6.674;2023-06-26T00:42:44;7.83;;;5.20;;
71916;SDS011;59793;46.506;6.674;2023-06-26T00:45:10;7.07;;;5.77;;
71916;SDS011;59793;46.506;6.674;2023-06-26T00:47:35;14.70;;;6.57;;
71916;SDS011;59793;46.506;6.674;2023-06-26T00:52:27;6.90;;;5.93;;
71916;SDS011;59793;46.506;6.674;2023-06-26T00:54:53;7.17;;;6.40;;
71916;SDS011;59793;46.506;6.674;2023-06-26T00:57:18;7.43;;;6.10;;
71916;SDS011;59793;46.506;6.674;2023-06-26T00:59:44;7.77;;;6.20;;
71916;SDS011;59793;46.506;6.674;2023-06-26T01:02:09;6.77;;;5.77;;
71916;SDS011;59793;46.506;6.674;2023-06-26T01:04:35;7.40;;;5.77;;
71916;SDS011;59793;46.506;6.674;2023-06-26T01:07:01;7.50;;;6.07;;
71916;SDS011;59793;46.506;6.674;2023-06-26T01:09:26;8.40;;;6.07;;
71916;SDS011;59793;46.506;6.674;2023-06-26T01:11:52;10.85;;;6.22;;
71916;SDS011;59793;46.506;6.674;2023-06-26T01:14:18;7.30;;;6.23;;
71916;SDS011;59793;46.506;6.674;2023-06-26T01:16:43;8.40;;;6.57;;
71916;SDS011;59793;46.506;6.674;2023-06-26T01:19:15;7.43;;;5.93;;
71916;SDS011;59793;46.506;6.674;2023-06-26T01:21:50;7.75;;;5.90;;
71916;SDS011;59793;46.506;6.674;2023-06-26T01:24:22;6.80;;;6.07;;
71916;SDS011;59793;46.506;6.674;2023-06-26T01:26:52;7.20;;;5.90;;
71916;SDS011;59793;46.506;6.674;2023-06-26T01:29:18;8.45;;;6.32;;
71916;SDS011;59793;46.506;6.674;2023-06-26T01:31:46;9.45;;;6.53;;
71916;SDS011;59793;46.506;6.674;2023-06-26T01:34:17;7.93;;;6.03;;
71916;SDS011;59793;46.506;6.674;2023-06-26T01:36:43;7.90;;;5.65;;
71916;SDS011;59793;46.506;6.674;2023-06-26T01:39:09;10.23;;;6.28;;
71916;SDS011;59793;46.506;6.674;2023-06-26T01:41:35;6.87;;;6.17;;
71916;SDS011;59793;46.506;6.674;2023-06-26T01:44:04;10.13;;;6.32;;
71916;SDS011;59793;46.506;6.674;2023-06-26T01:46:48;8.68;;;6.72;;
71916;SDS011;59793;46.506;6.674;2023-06-26T01:52:05;7.13;;;6.25;;
71916;SDS011;59793;46.506;6.674;2023-06-26T01:57:28;7.75;;;5.95;;
71916;SDS011;59793;46.506;6.674;2023-06-26T01:59:56;9.68;;;6.65;;
71916;SDS011;59793;46.506;6.674;2023-06-26T02:02:24;8.43;;;6.82;;
71916;SDS011;59793;46.506;6.674;2023-06-26T02:04:50;7.93;;;5.90;;
71916;SDS011;59793;46.506;6.674;2023-06-26T02:07:15;8.43;;;6.67;;
71916;SDS011;59793;46.506;6.674;2023-06-26T02:09:41;8.60;;;6.57;;
71916;SDS011;59793;46.506;6.674;2023-06-26T02:12:06;8.17;;;6.80;;
71916;SDS011;59793;46.506;6.674;2023-06-26T02:14:32;8.35;;;6.22;;
71916;SDS011;59793;46.506;6.674;2023-06-26T02:16:58;9.13;;;6.37;;
71916;SDS011;59793;46.506;6.674;2023-06-26T02:19:25;8.70;;;6.22;;
71916;SDS011;59793;46.506;6.674;2023-06-26T02:21:52;8.15;;;6.22;;
71916;SDS011;59793;46.506;6.674;2023-06-26T02:24:18;7.78;;;6.05;;
71916;SDS011;59793;46.506;6.674;2023-06-26T02:26:44;7.10;;;6.07;;
71916;SDS011;59793;46.506;6.674;2023-06-26T02:29:10;9.30;;;6.18;;
71916;SDS011;59793;46.506;6.674;2023-06-26T02:31:36;7.15;;;5.82;;
71916;SDS011;59793;46.506;6.674;2023-06-26T02:34:03;7.57;;;6.27;;
71916;SDS011;59793;46.506;6.674;2023-06-26T02:36:29;7.78;;;6.65;;
71916;SDS011;59793;46.506;6.674;2023-06-26T02:38:54;7.70;;;6.60;;
71916;SDS011;59793;46.506;6.674;2023-06-26T02:41:20;7.43;;;5.53;;
71916;SDS011;59793;46.506;6.674;2023-06-26T02:43:45;7.23;;;5.97;;
71916;SDS011;59793;46.506;6.674;2023-06-26T02:46:10;7.63;;;6.50;;
71916;SDS011;59793;46.506;6.674;2023-06-26T02:48:35;8.80;;;6.93;;
71916;SDS011;59793;46.506;6.674;2023-06-26T02:51:01;9.93;;;7.10;;
71916;SDS011;59793;46.506;6.674;2023-06-26T02:53:26;8.10;;;6.40;;
71916;SDS011;59793;46.506;6.674;2023-06-26T02:55:51;7.27;;;6.13;;
71916;SDS011;59793;46.506;6.674;2023-06-26T02:58:17;9.33;;;6.50;;
71916;SDS011;59793;46.506;6.674;2023-06-26T03:00:42;8.33;;;6.50;;
71916;SDS011;59793;46.506;6.674;2023-06-26T03:03:08;10.20;;;6.05;;
71916;SDS011;59793;46.506;6.674;2023-06-26T03:05:34;8.88;;;6.35;;
71916;SDS011;59793;46.506;6.674;2023-06-26T03:07:59;9.33;;;7.00;;
71916;SDS011;59793;46.506;6.674;2023-06-26T03:10:24;7.93;;;6.47;;
71916;SDS011;59793;46.506;6.674;2023-06-26T03:12:49;8.87;;;6.97;;
71916;SDS011;59793;46.506;6.674;2023-06-26T03:15:15;8.87;;;6.93;;
71916;SDS011;59793;46.506;6.674;2023-06-26T03:17:40;9.50;;;6.70;;
71916;SDS011;59793;46.506;6.674;2023-06-26T03:20:06;7.90;;;6.27;;
71916;SDS011;59793;46.506;6.674;2023-06-26T03:22:32;13.10;;;6.50;;
71916;SDS011;59793;46.506;6.674;2023-06-26T03:24:58;8.60;;;6.85;;
71916;SDS011;59793;46.506;6.674;2023-06-26T03:27:23;7.43;;;6.23;;
71916;SDS011;59793;46.506;6.674;2023-06-26T03:29:49;7.93;;;6.50;;
71916;SDS011;59793;46.506;6.674;2023-06-26T03:32:14;8.37;;;6.73;;
71916;SDS011;59793;46.506;6.674;2023-06-26T03:34:39;8.60;;;6.70;;
71916;SDS011;59793;46.506;6.674;2023-06-26T03:37:05;7.87;;;6.63;;
71916;SDS011;59793;46.506;6.674;2023-06-26T03:39:30;9.13;;;6.43;;
71916;SDS011;59793;46.506;6.674;2023-06-26T03:41:55;7.70;;;6.43;;
71916;SDS011;59793;46.506;6.674;2023-06-26T03:44:25;9.25;;;6.65;;
71916;SDS011;59793;46.506;6.674;2023-06-26T03:46:50;8.93;;;7.10;;
71916;SDS011;59793;46.506;6.674;2023-06-26T03:49:16;8.07;;;6.40;;
71916;SDS011;59793;46.506;6.674;2023-06-26T03:51:41;8.90;;;6.53;;
71916;SDS011;59793;46.506;6.674;2023-06-26T03:54:06;7.80;;;6.50;;
71916;SDS011;59793;46.506;6.674;2023-06-26T03:56:32;8.73;;;6.33;;
71916;SDS011;59793;46.506;6.674;2023-06-26T03:58:57;9.50;;;6.57;;
71916;SDS011;59793;46.506;6.674;2023-06-26T04:01:22;8.53;;;6.07;;
71916;SDS011;59793;46.506;6.674;2023-06-26T04:03:48;9.07;;;7.03;;
71916;SDS011;59793;46.506;6.674;2023-06-26T04:06:13;7.17;;;6.07;;
71916;SDS011;59793;46.506;6.674;2023-06-26T04:08:39;9.73;;;6.90;;
71916;SDS011;59793;46.506;6.674;2023-06-26T04:11:04;6.90;;;6.03;;
71916;SDS011;59793;46.506;6.674;2023-06-26T04:13:29;8.73;;;7.13;;
71916;SDS011;59793;46.506;6.674;2023-06-26T04:15:55;12.53;;;7.53;;
71916;SDS011;59793;46.506;6.674;2023-06-26T04:18:20;7.23;;;5.40;;
71916;SDS011;59793;46.506;6.674;2023-06-26T04:21:04;8.23;;;6.57;;
71916;SDS011;59793;46.506;6.674;2023-06-26T04:23:37;8.48;;;7.05;;
71916;SDS011;59793;46.506;6.674;2023-06-26T04:26:06;7.13;;;6.38;;
71916;SDS011;59793;46.506;6.674;2023-06-26T04:28:33;9.48;;;7.40;;
71916;SDS011;59793;46.506;6.674;2023-06-26T04:31:00;7.03;;;6.13;;
71916;SDS011;59793;46.506;6.674;2023-06-26T04:35:52;7.82;;;6.53;;
71916;SDS011;59793;46.506;6.674;2023-06-26T04:38:18;8.15;;;7.10;;
71916;SDS011;59793;46.506;6.674;2023-06-26T04:40:44;11.50;;;6.90;;
71916;SDS011;59793;46.506;6.674;2023-06-26T04:43:09;10.00;;;6.63;;
71916;SDS011;59793;46.506;6.674;2023-06-26T04:45:35;9.47;;;7.10;;
71916;SDS011;59793;46.506;6.674;2023-06-26T04:48:00;9.07;;;6.73;;
71916;SDS011;59793;46.506;6.674;2023-06-26T04:50:26;8.97;;;7.27;;
71916;SDS011;59793;46.506;6.674;2023-06-26T04:52:54;8.10;;;7.10;;
71916;SDS011;59793;46.506;6.674;2023-06-26T04:55:19;9.38;;;6.97;;
71916;SDS011;59793;46.506;6.674;2023-06-26T04:57:46;12.77;;;7.55;;
71916;SDS011;59793;46.506;6.674;2023-06-26T05:00:12;13.53;;;7.43;;
71916;SDS011;59793;46.506;6.674;2023-06-26T05:02:38;7.53;;;6.57;;
71916;SDS011;59793;46.506;6.674;2023-06-26T05:05:03;8.67;;;6.47;;
71916;SDS011;59793;46.506;6.674;2023-06-26T05:07:29;8.50;;;5.97;;
71916;SDS011;59793;46.506;6.674;2023-06-26T05:09:54;8.63;;;6.93;;
71916;SDS011;59793;46.506;6.674;2023-06-26T05:12:20;8.57;;;7.05;;
71916;SDS011;59793;46.506;6.674;2023-06-26T05:14:45;7.90;;;6.73;;
71916;SDS011;59793;46.506;6.674;2023-06-26T05:17:11;7.23;;;6.10;;
71916;SDS011;59793;46.506;6.674;2023-06-26T05:19:39;8.20;;;6.65;;
71916;SDS011;59793;46.506;6.674;2023-06-26T05:22:04;8.13;;;6.27;;
71916;SDS011;59793;46.506;6.674;2023-06-26T05:24:32;9.23;;;7.28;;
71916;SDS011;59793;46.506;6.674;2023-06-26T05:27:02;9.48;;;6.60;;
71916;SDS011;59793;46.506;6.674;2023-06-26T05:29:27;9.60;;;7.03;;
71916;SDS011;59793;46.506;6.674;2023-06-26T05:34:21;7.80;;;6.50;;
71916;SDS011;59793;46.506;6.674;2023-06-26T05:36:49;9.43;;;6.82;;
71916;SDS011;59793;46.506;6.674;2023-06-26T05:39:16;11.68;;;6.97;;
71916;SDS011;59793;46.506;6.674;2023-06-26T05:41:43;10.05;;;7.57;;
71916;SDS011;59793;46.506;6.674;2023-06-26T05:44:09;8.10;;;6.25;;
71916;SDS011;59793;46.506;6.674;2023-06-26T05:46:35;13.17;;;6.70;;
71916;SDS011;59793;46.506;6.674;2023-06-26T05:49:00;9.43;;;6.67;;
71916;SDS011;59793;46.506;6.674;2023-06-26T05:51:26;13.05;;;7.82;;
71916;SDS011;59793;46.506;6.674;2023-06-26T05:53:52;11.70;;;7.32;;
71916;SDS011;59793;46.506;6.674;2023-06-26T05:56:18;9.23;;;7.03;;
71916;SDS011;59793;46.506;6.674;2023-06-26T05:58:43;8.17;;;6.60;;
71916;SDS011;59793;46.506;6.674;2023-06-26T06:01:09;9.93;;;7.40;;
71916;SDS011;59793;46.506;6.674;2023-06-26T06:03:34;7.87;;;6.27;;
71916;SDS011;59793;46.506;6.674;2023-06-26T06:06:00;8.93;;;6.67;;
71916;SDS011;59793;46.506;6.674;2023-06-26T06:08:25;8.87;;;7.07;;
71916;SDS011;59793;46.506;6.674;2023-06-26T06:10:50;12.20;;;6.73;;
71916;SDS011;59793;46.506;6.674;2023-06-26T06:13:15;11.77;;;7.67;;
71916;SDS011;59793;46.506;6.674;2023-06-26T06:15:41;11.37;;;7.10;;
71916;SDS011;59793;46.506;6.674;2023-06-26T06:18:07;10.70;;;7.38;;
71916;SDS011;59793;46.506;6.674;2023-06-26T06:20:32;9.87;;;7.43;;
71916;SDS011;59793;46.506;6.674;2023-06-26T06:22:57;7.70;;;6.37;;
71916;SDS011;59793;46.506;6.674;2023-06-26T06:25:23;11.17;;;7.70;;
71916;SDS011;59793;46.506;6.674;2023-06-26T06:27:48;9.53;;;7.03;;
71916;SDS011;59793;46.506;6.674;2023-06-26T06:30:13;10.23;;;7.87;;
71916;SDS011;59793;46.506;6.674;2023-06-26T06:32:39;8.93;;;7.22;;
71916;SDS011;59793;46.506;6.674;2023-06-26T06:35:05;10.83;;;7.67;;
71916;SDS011;59793;46.506;6.674;2023-06-26T06:37:34;14.30;;;7.68;;
71916;SDS011;59793;46.506;6.674;2023-06-26T06:40:04;13.25;;;7.90;;
71916;SDS011;59793;46.506;6.674;2023-06-26T06:42:32;11.35;;;7.50;;
71916;SDS011;59793;46.506;6.674;2023-06-26T06:44:58;11.73;;;7.35;;
71916;SDS011;59793;46.506;6.674;2023-06-26T06:47:23;8.77;;;7.13;;
71916;SDS011;59793;46.506;6.674;2023-06-26T06:49:50;7.30;;;6.40;;
71916;SDS011;59793;46.506;6.674;2023-06-26T06:52:15;9.35;;;7.55;;
71916;SDS011;59793;46.506;6.674;2023-06-26T06:54:57;8.87;;;6.80;;
71916;SDS011;59793;46.506;6.674;2023-06-26T06:57:30;9.82;;;7.43;;
71916;SDS011;59793;46.506;6.674;2023-06-26T06:59:55;12.63;;;7.65;;
71916;SDS011;59793;46.506;6.674;2023-06-26T07:02:21;8.97;;;7.27;;
71916;SDS011;59793;46.506;6.674;2023-06-26T07:04:47;9.18;;;7.45;;
71916;SDS011;59793;46.506;6.674;2023-06-26T07:07:13;13.27;;;6.90;;
71916;SDS011;59793;46.506;6.674;2023-06-26T07:09:41;8.20;;;7.00;;
71916;SDS011;59793;46.506;6.674;2023-06-26T07:12:12;9.33;;;7.10;;
71916;SDS011;59793;46.506;6.674;2023-06-26T07:14:38;7.55;;;6.63;;
71916;SDS011;59793;46.506;6.674;2023-06-26T07:17:04;9.65;;;6.35;;
71916;SDS011;59793;46.506;6.674;2023-06-26T07:19:29;9.50;;;7.57;;
71916;SDS011;59793;46.506;6.674;2023-06-26T07:21:55;8.10;;;7.13;;
71916;SDS011;59793;46.506;6.674;2023-06-26T07:24:20;8.90;;;6.80;;
71916;SDS011;59793;46.506;6.674;2023-06-26T07:26:48;8.23;;;7.15;;
71916;SDS011;59793;46.506;6.674;2023-06-26T07:29:13;8.73;;;7.80;;
71916;SDS011;59793;46.506;6.674;2023-06-26T07:31:38;11.07;;;8.43;;
71916;SDS011;59793;46.506;6.674;2023-06-26T07:34:04;8.10;;;7.30;;
71916;SDS011;59793;46.506;6.674;2023-06-26T07:36:29;9.00;;;7.23;;
71916;SDS011;59793;46.506;6.674;2023-06-26T07:38:54;13.33;;;8.80;;
71916;SDS011;59793;46.506;6.674;2023-06-26T07:41:19;9.20;;;7.23;;
71916;SDS011;59793;46.506;6.674;2023-06-26T07:43:45;10.63;;;7.10;;
71916;SDS011;59793;46.506;6.674;2023-06-26T07:46:10;10.13;;;8.47;;
71916;SDS011;59793;46.506;6.674;2023-06-26T07:51:02;11.37;;;7.80;;
71916;SDS011;59793;46.506;6.674;2023-06-26T07:53:27;8.97;;;8.07;;
71916;SDS011;59793;46.506;6.674;2023-06-26T07:55:52;12.67;;;7.87;;
71916;SDS011;59793;46.506;6.674;2023-06-26T07:58:18;9.33;;;8.07;;
71916;SDS011;59793;46.506;6.674;2023-06-26T08:00:45;16.07;;;8.00;;
71916;SDS011;59793;46.506;6.674;2023-06-26T08:03:17;10.20;;;7.75;;
71916;SDS011;59793;46.506;6.674;2023-06-26T08:05:43;10.02;;;8.00;;
71916;SDS011;59793;46.506;6.674;2023-06-26T08:08:08;9.63;;;8.23;;
71916;SDS011;59793;46.506;6.674;2023-06-26T08:10:33;9.50;;;8.13;;
71916;SDS011;59793;46.506;6.674;2023-06-26T08:12:59;9.35;;;8.02;;
71916;SDS011;59793;46.506;6.674;2023-06-26T08:15:25;10.53;;;8.13;;
71916;SDS011;59793;46.506;6.674;2023-06-26T08:17:50;7.83;;;6.87;;
71916;SDS011;59793;46.506;6.674;2023-06-26T08:20:15;9.97;;;8.73;;
71916;SDS011;59793;46.506;6.674;2023-06-26T08:22:41;8.10;;;7.30;;
71916;SDS011;59793;46.506;6.674;2023-06-26T08:25:06;15.17;;;8.23;;
71916;SDS011;59793;46.506;6.674;2023-06-26T08:27:32;10.80;;;9.15;;
71916;SDS011;59793;46.506;6.674;2023-06-26T08:29:58;9.70;;;7.75;;
71916;SDS011;59793;46.506;6.674;2023-06-26T08:32:25;8.47;;;7.57;;
71916;SDS011;59793;46.506;6.674;2023-06-26T08:35:00;13.43;;;7.88;;
71916;SDS011;59793;46.506;6.674;2023-06-26T08:37:25;9.07;;;7.80;;
71916;SDS011;59793;46.506;6.674;2023-06-26T08:39:50;9.67;;;7.93;;
71916;SDS011;59793;46.506;6.674;2023-06-26T08:42:17;10.93;;;7.43;;
71916;SDS011;59793;46.506;6.674;2023-06-26T08:44:42;10.30;;;7.15;;
71916;SDS011;59793;46.506;6.674;2023-06-26T08:47:08;10.93;;;7.70;;
71916;SDS011;59793;46.506;6.674;2023-06-26T08:49:40;7.85;;;7.05;;
71916;SDS011;59793;46.506;6.674;2023-06-26T08:52:20;8.43;;;7.53;;
71916;SDS011;59793;46.506;6.674;2023-06-26T08:54:49;11.98;;;8.38;;
71916;SDS011;59793;46.506;6.674;2023-06-26T08:57:20;8.32;;;7.43;;
71916;SDS011;59793;46.506;6.674;2023-06-26T08:59:48;11.95;;;8.15;;
71916;SDS011;59793;46.506;6.674;2023-06-26T09:02:14;9.15;;;7.30;;
71916;SDS011;59793;46.506;6.674;2023-06-26T09:04:39;9.75;;;7.47;;
71916;SDS011;59793;46.506;6.674;2023-06-26T09:07:05;8.77;;;7.60;;
71916;SDS011;59793;46.506;6.674;2023-06-26T09:09:31;11.88;;;6.82;;
71916;SDS011;59793;46.506;6.674;2023-06-26T09:12:00;12.05;;;8.30;;
71916;SDS011;59793;46.506;6.674;2023-06-26T09:14:46;8.98;;;7.13;;
71916;SDS011;59793;46.506;6.674;2023-06-26T09:17:13;8.35;;;7.25;;
71916;SDS011;59793;46.506;6.674;2023-06-26T09:19:38;7.65;;;6.85;;
71916;SDS011;59793;46.506;6.674;2023-06-26T09:22:04;10.48;;;7.75;;
71916;SDS011;59793;46.506;6.674;2023-06-26T09:24:30;9.07;;;7.70;;
71916;SDS011;59793;46.506;6.674;2023-06-26T09:26:57;9.85;;;7.75;;
71916;SDS011;59793;46.506;6.674;2023-06-26T09:29:23;9.47;;;6.90;;
71916;SDS011;59793;46.506;6.674;2023-06-26T09:31:50;8.30;;;7.50;;
71916;SDS011;59793;46.506;6.674;2023-06-26T09:34:17;14.20;;;8.50;;
71916;SDS011;59793;46.506;6.674;2023-06-26T09:36:42;11.05;;;7.57;;
71916;SDS011;59793;46.506;6.674;2023-06-26T09:39:11;10.20;;;7.47;;
71916;SDS011;59793;46.506;6.674;2023-06-26T09:41:37;9.07;;;7.07;;
71916;SDS011;59793;46.506;6.674;2023-06-26T09:44:05;10.10;;;7.68;;
71916;SDS011;59793;46.506;6.674;2023-06-26T09:46:32;11.00;;;7.97;;
71916;SDS011;59793;46.506;6.674;2023-06-26T09:48:59;8.25;;;7.25;;
71916;SDS011;59793;46.506;6.674;2023-06-26T09:51:32;9.25;;;7.38;;
71916;SDS011;59793;46.506;6.674;2023-06-26T09:53:58;9.85;;;7.65;;
71916;SDS011;59793;46.506;6.674;2023-06-26T09:56:26;9.52;;;7.55;;
71916;SDS011;59793;46.506;6.674;2023-06-26T09:58:57;9.82;;;7.38;;
71916;SDS011;59793;46.506;6.674;2023-06-26T10:01:27;13.40;;;8.07;;
71916;SDS011;59793;46.506;6.674;2023-06-26T10:03:54;8.55;;;7.40;;
71916;SDS011;59793;46.506;6.674;2023-06-26T10:06:31;8.27;;;7.20;;
71916;SDS011;59793;46.506;6.674;2023-06-26T10:09:02;9.55;;;6.68;;
71916;SDS011;59793;46.506;6.674;2023-06-26T10:11:43;8.70;;;6.63;;
71916;SDS011;59793;46.506;6.674;2023-06-26T10:14:12;10.00;;;7.57;;
71916;SDS011;59793;46.506;6.674;2023-06-26T10:16:39;11.32;;;6.97;;
71916;SDS011;59793;46.506;6.674;2023-06-26T10:19:08;13.27;;;7.15;;
71916;SDS011;59793;46.506;6.674;2023-06-26T10:21:44;9.65;;;6.88;;
71916;SDS011;59793;46.506;6.674;2023-06-26T10:24:09;10.35;;;7.07;;
71916;SDS011;59793;46.506;6.674;2023-06-26T10:26:38;8.40;;;6.68;;
71916;SDS011;59793;46.506;6.674;2023-06-26T10:29:09;8.00;;;7.20;;
71916;SDS011;59793;46.506;6.674;2023-06-26T10:31:35;8.07;;;7.00;;
71916;SDS011;59793;46.506;6.674;2023-06-26T10:34:04;10.27;;;7.57;;
71916;SDS011;59793;46.506;6.674;2023-06-26T10:36:31;8.57;;;7.60;;
71916;SDS011;59793;46.506;6.674;2023-06-26T10:41:38;10.60;;;7.93;;
71916;SDS011;59793;46.506;6.674;2023-06-26T10:46:55;10.88;;;8.27;;
71916;SDS011;59793;46.506;6.674;2023-06-26T10:49:27;11.88;;;7.35;;
71916;SDS011;59793;46.506;6.674;2023-06-26T10:51:54;13.30;;;7.63;;
71916;SDS011;59793;46.506;6.674;2023-06-26T10:54:22;12.10;;;7.78;;
71916;SDS011;59793;46.506;6.674;2023-06-26T10:56:51;7.90;;;7.10;;
71916;SDS011;59793;46.506;6.674;2023-06-26T10:59:22;8.77;;;7.43;;
71916;SDS011;59793;46.506;6.674;2023-06-26T11:01:59;8.75;;;7.85;;
71916;SDS011;59793;46.506;6.674;2023-06-26T11:07:25;9.95;;;7.07;;
71916;SDS011;59793;46.506;6.674;2023-06-26T11:15:11;7.72;;;5.82;;
71916;SDS011;59793;46.506;6.674;2023-06-26T11:17:38;9.55;;;6.47;;
71916;SDS011;59793;46.506;6.674;2023-06-26T11:20:07;10.50;;;6.57;;
71916;SDS011;59793;46.506;6.674;2023-06-26T11:22:34;10.45;;;6.60;;
71916;SDS011;59793;46.506;6.674;2023-06-26T11:25:01;7.28;;;6.13;;
71916;SDS011;59793;46.506;6.674;2023-06-26T11:30:03;8.50;;;6.32;;
71916;SDS011;59793;46.506;6.674;2023-06-26T11:32:32;7.82;;;6.57;;
71916;SDS011;59793;46.506;6.674;2023-06-26T11:37:24;8.20;;;6.15;;
71916;SDS011;59793;46.506;6.674;2023-06-26T11:39:50;9.20;;;6.15;;
71916;SDS011;59793;46.506;6.674;2023-06-26T11:44:41;7.70;;;5.55;;
71916;SDS011;59793;46.506;6.674;2023-06-26T11:47:08;7.38;;;5.35;;
71916;SDS011;59793;46.506;6.674;2023-06-26T11:49:37;6.13;;;5.53;;
71916;SDS011;59793;46.506;6.674;2023-06-26T11:52:04;7.65;;;6.68;;
71916;SDS011;59793;46.506;6.674;2023-06-26T11:56:58;8.23;;;6.00;;
71916;SDS011;59793;46.506;6.674;2023-06-26T11:59:24;9.77;;;6.20;;
71916;SDS011;59793;46.506;6.674;2023-06-26T12:01:58;6.68;;;5.57;;
71916;SDS011;59793;46.506;6.674;2023-06-26T12:06:51;10.15;;;6.72;;
71916;SDS011;59793;46.506;6.674;2023-06-26T12:09:22;7.40;;;5.70;;
71916;SDS011;59793;46.506;6.674;2023-06-26T12:11:51;7.15;;;5.72;;
71916;SDS011;59793;46.506;6.674;2023-06-26T12:14:19;7.45;;;5.95;;
71916;SDS011;59793;46.506;6.674;2023-06-26T12:16:48;8.07;;;6.47;;
71916;SDS011;59793;46.506;6.674;2023-06-26T12:19:14;10.43;;;5.95;;
71916;SDS011;59793;46.506;6.674;2023-06-26T12:24:06;7.60;;;5.97;;
71916;SDS011;59793;46.506;6.674;2023-06-26T12:26:33;13.98;;;5.90;;
71916;SDS011;59793;46.506;6.674;2023-06-26T12:31:33;8.30;;;5.40;;
71916;SDS011;59793;46.506;6.674;2023-06-26T12:34:00;6.60;;;5.57;;
71916;SDS011;59793;46.506;6.674;2023-06-26T12:38:52;6.30;;;5.60;;
71916;SDS011;59793;46.506;6.674;2023-06-26T12:41:19;10.30;;;5.88;;
71916;SDS011;59793;46.506;6.674;2023-06-26T12:43:45;6.50;;;5.75;;
71916;SDS011;59793;46.506;6.674;2023-06-26T12:48:41;7.45;;;5.65;;
71916;SDS011;59793;46.506;6.674;2023-06-26T12:51:17;11.98;;;6.13;;
71916;SDS011;59793;46.506;6.674;2023-06-26T12:53:43;11.93;;;5.93;;
71916;SDS011;59793;46.506;6.674;2023-06-26T12:58:34;7.90;;;6.00;;
71916;SDS011;59793;46.506;6.674;2023-06-26T13:01:03;6.97;;;6.18;;
71916;SDS011;59793;46.506;6.674;2023-06-26T13:03:29;12.38;;;6.40;;
71916;SDS011;59793;46.506;6.674;2023-06-26T13:08:20;7.28;;;5.93;;
71916;SDS011;59793;46.506;6.674;2023-06-26T13:13:11;7.87;;;5.37;;
71916;SDS011;59793;46.506;6.674;2023-06-26T13:15:36;6.95;;;5.60;;
71916;SDS011;59793;46.506;6.674;2023-06-26T13:18:02;10.63;;;6.60;;
71916;SDS011;59793;46.506;6.674;2023-06-26T13:22:53;7.97;;;6.00;;
71916;SDS011;59793;46.506;6.674;2023-06-26T13:25:19;13.35;;;6.05;;
71916;SDS011;59793;46.506;6.674;2023-06-26T13:27:47;6.45;;;5.72;;
71916;SDS011;59793;46.506;6.674;2023-06-26T13:30:14;10.75;;;6.18;;
71916;SDS011;59793;46.506;6.674;2023-06-26T13:32:40;7.57;;;6.47;;
71916;SDS011;59793;46.506;6.674;2023-06-26T13:35:05;9.63;;;5.80;;
71916;SDS011;59793;46.506;6.674;2023-06-26T13:39:59;11.48;;;6.47;;
71916;SDS011;59793;46.506;6.674;2023-06-26T13:42:28;11.02;;;6.22;;
71916;SDS011;59793;46.506;6.674;2023-06-26T13:44:53;7.93;;;5.60;;
71916;SDS011;59793;46.506;6.674;2023-06-26T13:47:20;6.68;;;5.95;;
71916;SDS011;59793;46.506;6.674;2023-06-26T13:49:47;9.95;;;6.10;;
71916;SDS011;59793;46.506;6.674;2023-06-26T13:52:12;10.25;;;6.38;;
71916;SDS011;59793;46.506;6.674;2023-06-26T13:57:05;9.10;;;6.53;;
71916;SDS011;59793;46.506;6.674;2023-06-26T14:01:56;9.13;;;6.70;;
71916;SDS011;59793;46.506;6.674;2023-06-26T14:06:47;9.40;;;6.50;;
71916;SDS011;59793;46.506;6.674;2023-06-26T14:11:37;8.77;;;6.40;;
71916;SDS011;59793;46.506;6.674;2023-06-26T14:16:28;8.30;;;6.23;;
71916;SDS011;59793;46.506;6.674;2023-06-26T14:18:54;8.85;;;6.53;;
71916;SDS011;59793;46.506;6.674;2023-06-26T14:23:45;9.10;;;6.18;;
71916;SDS011;59793;46.506;6.674;2023-06-26T14:28:36;8.52;;;5.95;;
71916;SDS011;59793;46.506;6.674;2023-06-26T14:31:02;8.48;;;6.35;;
71916;SDS011;59793;46.506;6.674;2023-06-26T14:35:53;11.17;;;5.73;;
71916;SDS011;59793;46.506;6.674;2023-06-26T14:38:18;7.53;;;6.28;;
71916;SDS011;59793;46.506;6.674;2023-06-26T14:40:44;8.27;;;5.32;;
71916;SDS011;59793;46.506;6.674;2023-06-26T14:45:35;8.37;;;5.57;;
71916;SDS011;59793;46.506;6.674;2023-06-26T14:50:25;6.97;;;6.13;;
71916;SDS011;59793;46.506;6.674;2023-06-26T14:52:50;8.10;;;6.28;;
71916;SDS011;59793;46.506;6.674;2023-06-26T14:55:16;8.20;;;6.13;;
71916;SDS011;59793;46.506;6.674;2023-06-26T14:57:41;7.10;;;6.18;;
71916;SDS011;59793;46.506;6.674;2023-06-26T15:00:07;15.45;;;6.63;;
71916;SDS011;59793;46.506;6.674;2023-06-26T15:02:33;7.47;;;6.00;;
71916;SDS011;59793;46.506;6.674;2023-06-26T15:04:59;7.25;;;6.53;;
71916;SDS011;59793;46.506;6.674;2023-06-26T15:07:24;7.90;;;5.95;;
71916;SDS011;59793;46.506;6.674;2023-06-26T15:09:49;8.57;;;6.28;;
71916;SDS011;59793;46.506;6.674;2023-06-26T15:12:15;7.05;;;6.25;;
71916;SDS011;59793;46.506;6.674;2023-06-26T15:14:40;8.45;;;5.90;;
71916;SDS011;59793;46.506;6.674;2023-06-26T15:17:05;10.02;;;6.63;;
71916;SDS011;59793;46.506;6.674;2023-06-26T15:19:31;6.82;;;5.78;;
71916;SDS011;59793;46.506;6.674;2023-06-26T15:21:56;7.15;;;6.22;;
71916;SDS011;59793;46.506;6.674;2023-06-26T15:24:21;14.43;;;6.78;;
71916;SDS011;59793;46.506;6.674;2023-06-26T15:26:47;12.95;;;6.55;;
71916;SDS011;59793;46.506;6.674;2023-06-26T15:29:13;9.50;;;6.60;;
71916;SDS011;59793;46.506;6.674;2023-06-26T15:31:40;8.00;;;6.13;;
71916;SDS011;59793;46.506;6.674;2023-06-26T15:34:05;7.72;;;6.22;;
71916;SDS011;59793;46.506;6.674;2023-06-26T15:36:31;8.50;;;5.75;;
71916;SDS011;59793;46.506;6.674;2023-06-26T15:38:56;9.65;;;5.45;;
71916;SDS011;59793;46.506;6.674;2023-06-26T15:43:47;17.42;;;5.63;;
71916;SDS011;59793;46.506;6.674;2023-06-26T15:46:13;8.13;;;5.32;;
71916;SDS011;59793;46.506;6.674;2023-06-26T15:51:03;10.27;;;6.43;;
71916;SDS011;59793;46.506;6.674;2023-06-26T15:56:07;10.93;;;5.68;;
71916;SDS011;59793;46.506;6.674;2023-06-26T15:58:35;9.15;;;5.45;;
71916;SDS011;59793;46.506;6.674;2023-06-26T16:03:26;10.32;;;5.40;;
71916;SDS011;59793;46.506;6.674;2023-06-26T16:08:18;10.80;;;5.13;;
71916;SDS011;59793;46.506;6.674;2023-06-26T16:13:08;11.03;;;5.13;;
71916;SDS011;59793;46.506;6.674;2023-06-26T16:18:00;5.57;;;4.78;;
71916;SDS011;59793;46.506;6.674;2023-06-26T16:22:51;7.63;;;5.23;;
71916;SDS011;59793;46.506;6.674;2023-06-26T16:25:16;6.63;;;5.38;;
71916;SDS011;59793;46.506;6.674;2023-06-26T16:30:10;7.13;;;4.93;;